createdAt,value
2022-07-31T00:02:09.057Z,7.03
2022-07-31T00:04:36.418Z,6.20
2022-07-31T00:07:03.964Z,5.77
2022-07-31T00:09:52.959Z,6.00
2022-07-31T00:12:18.523Z,6.63
2022-07-31T00:14:46.142Z,6.97
2022-07-31T00:17:13.308Z,5.90
2022-07-31T00:19:41.596Z,7.10
2022-07-31T00:22:10.796Z,5.90
2022-07-31T00:24:37.947Z,6.07
2022-07-31T00:27:05.579Z,5.53
2022-07-31T00:29:32.941Z,6.17
2022-07-31T00:32:00.068Z,6.17
2022-07-31T00:34:27.239Z,6.97
2022-07-31T00:36:54.590Z,5.80
2022-07-31T00:39:21.797Z,6.37
2022-07-31T00:41:49.568Z,5.87
2022-07-31T00:44:16.781Z,6.00
2022-07-31T00:46:45.718Z,5.60
2022-07-31T00:49:12.946Z,6.70
2022-07-31T00:51:40.915Z,5.83
2022-07-31T00:54:08.566Z,6.43
2022-07-31T00:56:36.002Z,5.83
2022-07-31T00:59:03.694Z,6.27
2022-07-31T01:01:31.065Z,6.80
2022-07-31T01:03:58.339Z,7.63
2022-07-31T01:06:25.494Z,7.53
2022-07-31T01:08:52.937Z,6.33
2022-07-31T01:11:34.085Z,7.13
2022-07-31T01:14:02.816Z,6.23
2022-07-31T01:16:31.789Z,6.43
2022-07-31T01:19:00.031Z,6.40
2022-07-31T01:21:33.316Z,6.03
2022-07-31T01:24:06.495Z,6.93
2022-07-31T01:26:39.968Z,6.23
2022-07-31T01:29:10.638Z,7.70
2022-07-31T01:31:42.507Z,7.57
2022-07-31T01:34:15.305Z,6.50
2022-07-31T01:36:45.167Z,8.60
2022-07-31T01:39:12.776Z,6.93
2022-07-31T01:41:42.583Z,7.90
2022-07-31T01:44:13.672Z,6.97
2022-07-31T01:46:41.741Z,6.70
2022-07-31T01:49:10.403Z,7.03
2022-07-31T01:51:39.129Z,7.07
2022-07-31T01:54:06.622Z,7.03
2022-07-31T01:56:34.838Z,7.57
2022-07-31T01:59:03.146Z,7.03
2022-07-31T02:01:30.947Z,8.17
2022-07-31T02:04:00.682Z,6.67
2022-07-31T02:06:28.773Z,8.57
2022-07-31T02:08:56.360Z,8.27
2022-07-31T02:11:24.109Z,7.53
2022-07-31T02:13:52.138Z,7.37
2022-07-31T02:16:20.362Z,7.37
2022-07-31T02:18:49.206Z,6.60
2022-07-31T02:21:16.532Z,7.37
2022-07-31T02:23:43.733Z,6.73
2022-07-31T02:26:10.937Z,6.47
2022-07-31T02:28:41.376Z,7.70
2022-07-31T02:31:11.497Z,7.13
2022-07-31T02:33:38.999Z,6.37
2022-07-31T02:36:07.361Z,6.83
2022-07-31T02:38:34.814Z,7.50
2022-07-31T02:41:04.753Z,6.23
2022-07-31T02:43:33.246Z,7.07
2022-07-31T02:46:00.824Z,6.80
2022-07-31T02:48:28.209Z,6.83
2022-07-31T02:50:55.857Z,6.77
2022-07-31T02:53:23.096Z,6.43
2022-07-31T02:55:51.148Z,7.07
2022-07-31T02:58:18.314Z,5.80
2022-07-31T03:00:45.956Z,6.17
2022-07-31T03:03:13.342Z,6.60
2022-07-31T03:05:40.540Z,8.37
2022-07-31T03:08:07.693Z,6.20
2022-07-31T03:10:34.803Z,8.13
2022-07-31T03:13:03.655Z,6.47
2022-07-31T03:15:31.399Z,6.40
2022-07-31T03:17:59.213Z,6.63
2022-07-31T03:20:27.174Z,8.10
2022-07-31T03:22:54.616Z,7.67
2022-07-31T03:25:22.403Z,9.17
2022-07-31T03:27:55.671Z,6.70
2022-07-31T03:30:27.206Z,6.70
2022-07-31T03:32:54.885Z,5.83
2022-07-31T03:35:22.279Z,6.23
2022-07-31T03:37:49.639Z,5.93
2022-07-31T03:40:16.812Z,5.80
2022-07-31T03:42:44.378Z,6.53
2022-07-31T03:45:12.758Z,6.17
2022-07-31T03:47:40.144Z,5.63
2022-07-31T03:50:07.977Z,5.87
2022-07-31T03:52:35.596Z,6.17
2022-07-31T03:55:02.904Z,6.17
2022-07-31T03:57:31.067Z,7.10
2022-07-31T04:00:02.365Z,7.80
2022-07-31T04:02:30.403Z,6.27
2022-07-31T04:04:59.180Z,6.27
2022-07-31T04:07:26.466Z,5.80
2022-07-31T04:09:53.779Z,6.50
2022-07-31T04:12:21.014Z,6.70
2022-07-31T04:14:48.142Z,6.77
2022-07-31T04:17:15.332Z,5.93
2022-07-31T04:19:42.670Z,6.63
2022-07-31T04:22:09.790Z,5.50
2022-07-31T04:24:36.953Z,6.53
2022-07-31T04:27:08.150Z,5.20
2022-07-31T04:29:38.030Z,6.27
2022-07-31T04:32:05.701Z,6.80
2022-07-31T04:34:33.127Z,6.27
2022-07-31T04:37:00.271Z,5.57
2022-07-31T04:39:27.481Z,6.60
2022-07-31T04:41:54.811Z,7.13
2022-07-31T04:44:21.970Z,6.60
2022-07-31T04:46:49.152Z,6.00
2022-07-31T04:49:16.359Z,10.47
2022-07-31T04:51:44.041Z,6.93
2022-07-31T04:54:11.356Z,8.17
2022-07-31T04:56:44.720Z,6.17
2022-07-31T04:59:12.824Z,5.80
2022-07-31T05:01:41.526Z,6.63
2022-07-31T05:04:09.548Z,6.37
2022-07-31T05:06:38.044Z,6.73
2022-07-31T05:09:09.435Z,5.93
2022-07-31T05:11:38.251Z,6.50
2022-07-31T05:14:06.532Z,8.13
2022-07-31T05:16:33.893Z,5.60
2022-07-31T05:19:01.415Z,5.70
2022-07-31T05:21:30.597Z,5.93
2022-07-31T05:23:58.419Z,6.53
2022-07-31T05:26:25.951Z,5.67
2022-07-31T05:28:58.248Z,5.60
2022-07-31T05:31:26.372Z,5.53
2022-07-31T05:33:53.523Z,5.57
2022-07-31T05:36:20.936Z,5.67
2022-07-31T05:38:48.664Z,5.07
2022-07-31T05:41:15.895Z,5.67
2022-07-31T05:43:43.058Z,5.40
2022-07-31T05:46:13.921Z,5.30
2022-07-31T05:48:41.693Z,5.23
2022-07-31T05:51:10.458Z,5.13
2022-07-31T05:53:37.835Z,5.13
2022-07-31T05:56:05.675Z,4.63
2022-07-31T05:58:34.110Z,4.80
2022-07-31T06:01:02.315Z,4.60
2022-07-31T06:03:29.887Z,4.70
2022-07-31T06:05:57.245Z,4.73
2022-07-31T06:08:26.234Z,3.80
2022-07-31T06:10:53.432Z,4.40
2022-07-31T06:13:24.365Z,4.60
2022-07-31T06:15:51.475Z,3.70
2022-07-31T06:18:18.701Z,4.80
2022-07-31T06:20:45.871Z,3.80
2022-07-31T06:23:20.094Z,4.03
2022-07-31T06:25:55.164Z,5.47
2022-07-31T06:28:29.077Z,4.17
2022-07-31T06:31:09.419Z,3.50
2022-07-31T06:33:37.402Z,4.47
2022-07-31T06:36:05.227Z,3.50
2022-07-31T06:38:32.380Z,3.37
2022-07-31T06:40:59.521Z,3.20
2022-07-31T06:43:26.647Z,3.47
2022-07-31T06:45:53.851Z,3.53
2022-07-31T06:48:20.964Z,3.90
2022-07-31T06:50:48.529Z,3.77
2022-07-31T06:53:19.511Z,3.50
2022-07-31T06:55:46.724Z,3.40
2022-07-31T06:58:13.843Z,3.40
2022-07-31T07:00:41.000Z,3.37
2022-07-31T07:03:08.119Z,3.33
2022-07-31T07:05:35.286Z,3.20
2022-07-31T07:08:02.403Z,3.70
2022-07-31T07:10:29.515Z,3.40
2022-07-31T07:12:56.649Z,4.03
2022-07-31T07:15:23.789Z,3.97
2022-07-31T07:17:50.939Z,3.67
2022-07-31T07:20:18.224Z,3.40
2022-07-31T07:22:45.336Z,3.70
2022-07-31T07:25:12.916Z,3.37
2022-07-31T07:27:40.112Z,3.50
2022-07-31T07:30:07.682Z,5.30
2022-07-31T07:32:34.884Z,3.53
2022-07-31T07:35:04.058Z,3.73
2022-07-31T07:37:31.267Z,3.67
2022-07-31T07:40:07.022Z,3.83
2022-07-31T07:42:34.194Z,3.73
2022-07-31T07:45:02.782Z,3.90
2022-07-31T07:48:02.294Z,4.13
2022-07-31T07:50:26.882Z,4.07
2022-07-31T07:52:56.515Z,3.77
2022-07-31T07:55:23.873Z,3.80
2022-07-31T07:57:51.036Z,4.40
2022-07-31T08:00:18.664Z,3.63
2022-07-31T08:03:47.697Z,3.67
2022-07-31T08:05:33.832Z,5.03
2022-07-31T08:08:00.989Z,4.22
2022-07-31T08:10:28.285Z,4.28
2022-07-31T08:12:55.428Z,4.00
2022-07-31T08:15:22.707Z,3.85
2022-07-31T08:17:49.865Z,4.10
2022-07-31T08:20:17.091Z,4.22
2022-07-31T08:22:44.204Z,3.90
2022-07-31T08:25:15.221Z,3.80
2022-07-31T08:27:42.517Z,3.60
2022-07-31T08:30:09.939Z,3.97
2022-07-31T08:32:38.599Z,3.83
2022-07-31T08:35:06.312Z,3.60
2022-07-31T08:37:52.564Z,3.80
2022-07-31T08:40:21.017Z,4.00
2022-07-31T08:42:48.197Z,3.72
2022-07-31T08:45:15.465Z,4.68
2022-07-31T08:47:45.434Z,3.72
2022-07-31T08:50:14.078Z,3.65
2022-07-31T08:52:43.485Z,3.47
2022-07-31T08:55:11.417Z,3.53
2022-07-31T08:57:58.808Z,3.50
2022-07-31T09:00:26.180Z,3.85
2022-07-31T09:02:55.021Z,3.88
2022-07-31T09:05:22.668Z,4.65
2022-07-31T09:07:49.828Z,3.42
2022-07-31T09:10:27.951Z,4.10
2022-07-31T09:12:55.869Z,3.45
2022-07-31T09:15:24.252Z,3.60
2022-07-31T09:17:54.112Z,3.33
2022-07-31T09:20:22.605Z,8.75
2022-07-31T09:22:54.178Z,3.60
2022-07-31T09:25:21.357Z,3.72
2022-07-31T09:27:50.919Z,4.50
2022-07-31T09:30:18.052Z,3.55
2022-07-31T09:32:46.027Z,5.20
2022-07-31T09:35:17.527Z,3.55
2022-07-31T09:37:47.817Z,3.40
2022-07-31T09:40:15.093Z,3.50
2022-07-31T09:42:55.582Z,3.67
2022-07-31T09:45:23.662Z,4.00
2022-07-31T09:48:03.302Z,3.83
2022-07-31T09:50:30.474Z,3.83
2022-07-31T09:53:01.289Z,3.60
2022-07-31T09:55:29.095Z,3.70
2022-07-31T09:57:57.705Z,4.13
2022-07-31T10:00:25.357Z,4.10
2022-07-31T10:02:54.650Z,3.50
2022-07-31T10:05:25.145Z,3.30
2022-07-31T10:07:52.530Z,3.50
2022-07-31T10:10:19.938Z,3.50
2022-07-31T10:12:50.401Z,3.75
2022-07-31T10:15:35.029Z,3.33
2022-07-31T10:18:02.922Z,3.05
2022-07-31T10:20:31.535Z,3.20
2022-07-31T10:23:10.349Z,3.85
2022-07-31T10:25:41.241Z,3.88
2022-07-31T10:28:18.361Z,3.53
2022-07-31T10:30:46.297Z,3.70
2022-07-31T10:33:40.759Z,4.25
2022-07-31T10:36:04.033Z,3.78
2022-07-31T10:38:38.264Z,3.55
2022-07-31T10:41:08.736Z,3.85
2022-07-31T10:43:45.201Z,3.88
2022-07-31T10:46:12.399Z,3.70
2022-07-31T10:48:39.524Z,3.60
2022-07-31T10:51:09.609Z,5.22
2022-07-31T10:53:51.264Z,4.93
2022-07-31T10:56:22.476Z,4.35
2022-07-31T10:58:50.687Z,3.83
2022-07-31T11:01:18.236Z,3.83
2022-07-31T11:03:49.772Z,3.97
2022-07-31T11:06:17.767Z,3.90
2022-07-31T11:08:52.756Z,4.63
2022-07-31T11:11:31.548Z,3.90
2022-07-31T11:14:00.215Z,4.15
2022-07-31T11:16:29.059Z,4.03
2022-07-31T11:19:03.228Z,4.37
2022-07-31T11:21:40.453Z,3.83
2022-07-31T11:24:27.910Z,4.30
2022-07-31T11:26:57.334Z,4.20
2022-07-31T11:29:59.208Z,4.00
2022-07-31T11:32:16.580Z,3.97
2022-07-31T11:34:44.140Z,4.00
2022-07-31T11:37:16.615Z,3.90
2022-07-31T11:39:51.728Z,4.00
2022-07-31T11:42:26.577Z,4.37
2022-07-31T11:45:02.267Z,3.97
2022-07-31T11:48:11.233Z,4.03
2022-07-31T11:50:30.675Z,3.70
2022-07-31T11:53:04.582Z,4.30
2022-07-31T11:55:31.814Z,3.50
2022-07-31T11:57:58.977Z,3.60
2022-07-31T12:00:29.662Z,3.87
2022-07-31T12:02:58.641Z,4.23
2022-07-31T12:05:38.109Z,3.67
2022-07-31T12:08:07.613Z,3.63
2022-07-31T12:10:34.877Z,3.53
2022-07-31T12:13:02.728Z,3.23
2022-07-31T12:15:29.896Z,3.13
2022-07-31T12:18:06.290Z,3.30
2022-07-31T12:20:36.631Z,3.73
2022-07-31T12:23:05.757Z,3.60
2022-07-31T12:25:46.404Z,3.60
2022-07-31T12:28:14.381Z,3.90
2022-07-31T12:30:42.036Z,3.43
2022-07-31T12:33:10.169Z,6.10
2022-07-31T12:35:56.460Z,3.07
2022-07-31T12:38:40.871Z,3.87
2022-07-31T12:41:08.332Z,3.37
2022-07-31T12:43:38.016Z,2.97
2022-07-31T12:46:05.330Z,2.67
2022-07-31T12:48:38.449Z,2.90
2022-07-31T12:51:07.409Z,2.77
2022-07-31T12:53:34.550Z,2.97
2022-07-31T12:56:02.160Z,2.63
2022-07-31T12:58:29.362Z,2.83
2022-07-31T13:00:57.165Z,3.33
2022-07-31T13:03:24.324Z,2.97
2022-07-31T13:06:06.340Z,2.50
2022-07-31T13:08:34.114Z,2.47
2022-07-31T13:11:01.279Z,2.90
2022-07-31T13:13:28.398Z,2.60
2022-07-31T13:15:55.550Z,2.77
2022-07-31T13:18:22.690Z,2.60
2022-07-31T13:20:49.824Z,2.50
2022-07-31T13:23:16.958Z,2.80
2022-07-31T13:25:44.111Z,2.67
2022-07-31T13:28:11.283Z,2.60
2022-07-31T13:30:38.415Z,2.70
2022-07-31T13:33:05.789Z,2.50
2022-07-31T13:35:33.557Z,2.60
2022-07-31T13:38:00.694Z,2.30
2022-07-31T13:40:46.437Z,2.13
2022-07-31T13:43:13.613Z,3.07
2022-07-31T13:45:40.728Z,2.50
2022-07-31T13:48:10.085Z,2.40
2022-07-31T13:50:39.642Z,2.83
2022-07-31T13:53:07.120Z,2.70
2022-07-31T13:55:34.421Z,2.80
2022-07-31T13:58:01.766Z,2.60
2022-07-31T14:00:29.342Z,2.60
2022-07-31T14:02:57.128Z,3.13
2022-07-31T14:05:26.393Z,2.60
2022-07-31T14:07:54.744Z,2.73
2022-07-31T14:10:22.102Z,2.50
2022-07-31T14:12:49.637Z,3.17
2022-07-31T14:15:18.212Z,2.73
2022-07-31T14:17:45.639Z,2.67
2022-07-31T14:20:13.320Z,2.60
2022-07-31T14:22:40.607Z,2.93
2022-07-31T14:25:07.924Z,3.50
2022-07-31T14:27:35.172Z,2.47
2022-07-31T14:30:02.445Z,2.47
2022-07-31T14:32:30.734Z,2.40
2022-07-31T14:34:58.061Z,2.00
2022-07-31T14:37:25.501Z,2.33
2022-07-31T14:39:52.799Z,1.87
2022-07-31T14:42:21.975Z,2.27
2022-07-31T14:44:49.764Z,4.00
2022-07-31T14:47:17.607Z,2.30
2022-07-31T14:50:07.250Z,2.30
2022-07-31T14:52:32.363Z,2.10
2022-07-31T14:55:00.471Z,1.90
2022-07-31T14:57:28.334Z,1.87
2022-07-31T14:59:55.535Z,2.30
2022-07-31T15:02:23.073Z,1.87
2022-07-31T15:04:50.707Z,3.43
2022-07-31T15:10:05.872Z,1.60
2022-07-31T15:12:33.225Z,1.80
2022-07-31T15:15:00.387Z,2.00
2022-07-31T15:17:27.598Z,1.60
2022-07-31T15:19:54.734Z,1.87
2022-07-31T15:22:21.946Z,2.00
2022-07-31T15:24:50.153Z,2.23
2022-07-31T15:27:24.698Z,1.70
2022-07-31T15:30:05.918Z,1.70
2022-07-31T15:32:38.750Z,2.40
2022-07-31T15:35:06.733Z,1.83
2022-07-31T15:37:34.641Z,1.83
2022-07-31T15:40:03.700Z,2.80
2022-07-31T15:42:31.944Z,2.03
2022-07-31T15:44:59.181Z,1.63
2022-07-31T15:47:26.331Z,1.80
2022-07-31T15:49:53.475Z,1.77
2022-07-31T15:52:20.591Z,1.60
2022-07-31T15:54:51.781Z,1.80
2022-07-31T15:57:20.887Z,1.70
2022-07-31T15:59:48.089Z,1.80
2022-07-31T16:02:15.313Z,1.80
2022-07-31T16:04:52.831Z,2.23
2022-07-31T16:08:28.802Z,1.90
2022-07-31T16:10:15.866Z,1.90
2022-07-31T16:12:48.008Z,2.17
2022-07-31T16:15:16.331Z,2.03
2022-07-31T16:17:44.124Z,2.40
2022-07-31T16:20:11.859Z,2.53
2022-07-31T16:22:40.112Z,2.93
2022-07-31T16:25:08.039Z,2.23
2022-07-31T16:27:35.203Z,2.40
2022-07-31T16:30:03.115Z,2.10
2022-07-31T16:32:31.112Z,2.20
2022-07-31T16:35:01.202Z,2.90
2022-07-31T16:37:52.085Z,2.40
2022-07-31T16:40:26.868Z,2.00
2022-07-31T16:42:59.506Z,2.07
2022-07-31T16:45:27.122Z,2.17
2022-07-31T16:47:54.283Z,2.00
2022-07-31T16:50:21.459Z,2.00
2022-07-31T16:52:52.658Z,2.07
2022-07-31T16:55:46.261Z,1.90
2022-07-31T16:58:11.188Z,2.03
2022-07-31T17:00:39.316Z,1.90
2022-07-31T17:03:06.540Z,2.00
2022-07-31T17:05:53.701Z,1.83
2022-07-31T17:08:20.905Z,2.63
2022-07-31T17:10:52.498Z,1.70
2022-07-31T17:13:21.517Z,1.60
2022-07-31T17:15:48.669Z,1.90
2022-07-31T17:18:15.798Z,1.90
2022-07-31T17:20:46.908Z,1.60
2022-07-31T17:23:14.111Z,1.57
2022-07-31T17:25:42.879Z,1.60
2022-07-31T17:28:13.428Z,1.83
2022-07-31T17:30:42.554Z,2.30
2022-07-31T17:33:09.902Z,1.70
2022-07-31T17:35:37.083Z,1.60
2022-07-31T17:38:04.381Z,1.50
2022-07-31T17:40:43.488Z,1.87
2022-07-31T17:43:11.140Z,1.87
2022-07-31T17:45:50.885Z,1.90
2022-07-31T17:48:27.661Z,1.70
2022-07-31T17:50:54.851Z,1.47
2022-07-31T17:53:21.996Z,1.77
2022-07-31T17:55:52.275Z,2.20
2022-07-31T17:58:20.169Z,2.13
2022-07-31T18:00:47.335Z,1.60
2022-07-31T18:03:14.481Z,1.50
2022-07-31T18:05:41.635Z,1.47
2022-07-31T18:08:08.791Z,1.70
2022-07-31T18:10:53.503Z,2.07
2022-07-31T18:13:21.417Z,1.70
2022-07-31T18:15:48.544Z,2.27
2022-07-31T18:18:15.667Z,2.37
2022-07-31T18:20:45.169Z,4.00
2022-07-31T18:23:12.411Z,2.23
2022-07-31T18:25:41.849Z,2.23
2022-07-31T18:28:09.322Z,3.40
2022-07-31T18:30:41.116Z,2.40
2022-07-31T18:33:09.946Z,2.50
2022-07-31T18:35:37.094Z,2.53
2022-07-31T18:38:04.258Z,2.27
2022-07-31T18:40:32.713Z,2.13
2022-07-31T18:43:00.038Z,2.60
2022-07-31T18:45:27.809Z,2.87
2022-07-31T18:47:55.031Z,2.70
2022-07-31T18:50:59.786Z,2.20
2022-07-31T18:53:09.320Z,2.87
2022-07-31T18:55:36.468Z,2.13
2022-07-31T18:58:03.845Z,2.20
2022-07-31T19:00:31.959Z,2.80
2022-07-31T19:02:59.168Z,3.07
2022-07-31T19:05:26.841Z,2.50
2022-07-31T19:07:53.968Z,2.60
2022-07-31T19:10:31.260Z,2.47
2022-07-31T19:12:59.129Z,2.10
2022-07-31T19:15:26.275Z,2.37
2022-07-31T19:17:54.814Z,4.47
2022-07-31T19:20:56.874Z,2.10
2022-07-31T19:23:15.328Z,1.97
2022-07-31T19:26:02.135Z,1.90
2022-07-31T19:28:30.804Z,2.07
2022-07-31T19:30:57.931Z,1.93
2022-07-31T19:33:25.368Z,2.03
2022-07-31T19:35:58.377Z,2.10
2022-07-31T19:38:26.049Z,2.73
2022-07-31T19:40:53.198Z,2.40
2022-07-31T19:43:20.608Z,2.83
2022-07-31T19:46:00.387Z,4.23
2022-07-31T19:48:36.627Z,2.53
2022-07-31T19:51:04.088Z,2.20
2022-07-31T19:53:31.271Z,2.67
2022-07-31T19:56:00.339Z,2.23
2022-07-31T19:58:27.486Z,2.30
2022-07-31T20:00:54.642Z,2.40
2022-07-31T20:03:21.901Z,2.73
2022-07-31T20:05:49.079Z,2.30
2022-07-31T20:08:16.205Z,2.20
2022-07-31T20:10:43.324Z,2.60
2022-07-31T20:13:10.456Z,1.70
2022-07-31T20:15:51.504Z,1.87
2022-07-31T20:18:28.030Z,2.53
2022-07-31T20:20:57.144Z,2.20
2022-07-31T20:23:24.597Z,3.00
2022-07-31T20:25:51.743Z,1.90
2022-07-31T20:28:18.943Z,2.10
2022-07-31T20:30:46.069Z,2.17
2022-07-31T20:33:13.523Z,2.00
2022-07-31T20:35:49.102Z,2.47
2022-07-31T20:38:21.130Z,2.00
2022-07-31T20:40:54.158Z,2.23
2022-07-31T20:43:22.562Z,1.80
2022-07-31T20:45:49.775Z,2.10
2022-07-31T20:48:22.458Z,2.20
2022-07-31T20:50:49.588Z,2.10
2022-07-31T20:53:17.466Z,2.30
2022-07-31T20:55:47.389Z,2.27
2022-07-31T20:58:14.661Z,2.63
2022-07-31T21:00:42.472Z,2.03
2022-07-31T21:03:09.670Z,3.30
2022-07-31T21:05:36.781Z,2.23
2022-07-31T21:08:04.097Z,2.63
2022-07-31T21:10:31.338Z,2.60
2022-07-31T21:12:58.589Z,2.20
2022-07-31T21:15:42.193Z,2.30
2022-07-31T21:18:14.560Z,2.13
2022-07-31T21:20:52.273Z,3.27
2022-07-31T21:23:21.309Z,2.20
2022-07-31T21:25:48.598Z,2.43
2022-07-31T21:28:15.872Z,3.87
2022-07-31T21:30:43.118Z,2.30
2022-07-31T21:33:10.502Z,2.37
2022-07-31T21:35:39.737Z,2.60
2022-07-31T21:38:10.271Z,2.40
2022-07-31T21:40:39.095Z,2.33
2022-07-31T21:43:06.457Z,2.30
2022-07-31T21:45:55.007Z,3.20
2022-07-31T21:48:21.691Z,3.00
2022-07-31T21:50:48.857Z,4.40
2022-07-31T21:53:16.029Z,2.67
2022-07-31T21:55:43.307Z,2.50
2022-07-31T21:58:10.461Z,2.30
2022-07-31T22:00:38.097Z,2.03
2022-07-31T22:03:06.133Z,2.87
2022-07-31T22:05:52.536Z,2.80
2022-07-31T22:08:20.176Z,2.60
2022-07-31T22:10:47.708Z,3.13
2022-07-31T22:13:14.849Z,4.50
2022-07-31T22:15:55.585Z,2.73
2022-07-31T22:18:29.036Z,2.27
2022-07-31T22:20:56.392Z,2.77
2022-07-31T22:23:23.649Z,3.40
2022-07-31T22:25:50.868Z,2.33
2022-07-31T22:28:19.637Z,2.10
2022-07-31T22:30:47.028Z,2.90
2022-07-31T22:33:14.414Z,4.80
2022-07-31T22:35:41.776Z,2.97
2022-07-31T22:38:09.710Z,2.67
2022-07-31T22:40:36.881Z,2.33
2022-07-31T22:43:04.211Z,2.90
2022-07-31T22:45:51.496Z,3.23
2022-07-31T22:48:21.582Z,3.40
2022-07-31T22:50:49.203Z,3.10
2022-07-31T22:53:16.633Z,2.07
2022-07-31T22:55:43.811Z,2.20
2022-07-31T22:58:11.419Z,4.00
2022-07-31T23:00:38.983Z,2.67
2022-07-31T23:03:06.159Z,2.40
2022-07-31T23:06:13.166Z,4.50
2022-07-31T23:08:20.501Z,2.60
2022-07-31T23:10:47.690Z,2.93
2022-07-31T23:13:14.814Z,2.40
2022-07-31T23:15:41.936Z,2.50
2022-07-31T23:18:09.043Z,2.73
2022-07-31T23:20:36.195Z,3.43
2022-07-31T23:23:03.306Z,2.40
2022-07-31T23:25:30.452Z,2.30
2022-07-31T23:27:57.612Z,2.77
2022-07-31T23:30:27.451Z,2.70
2022-07-31T23:32:55.416Z,2.67
2022-07-31T23:35:22.589Z,3.03
2022-07-31T23:37:49.709Z,2.63
2022-07-31T23:40:16.865Z,2.60
2022-07-31T23:42:44.033Z,2.67
2022-07-31T23:45:12.821Z,2.77
2022-07-31T23:47:45.166Z,2.47
2022-07-31T23:50:13.874Z,3.43
2022-07-31T23:52:41.029Z,2.60
2022-07-31T23:55:08.438Z,2.53
2022-07-31T23:57:36.217Z,2.70
